createdAt,value
2023-05-14T00:00:06.462Z,7.32
2023-05-14T00:02:33.813Z,7.35
2023-05-14T00:05:00.594Z,7.15
2023-05-14T00:07:30.916Z,7.25
2023-05-14T00:09:58.604Z,7.18
2023-05-14T00:12:26.400Z,6.88
2023-05-14T00:14:53.725Z,7.50
2023-05-14T00:17:20.513Z,7.90
2023-05-14T00:19:47.146Z,8.60
2023-05-14T00:22:13.802Z,6.85
2023-05-14T00:24:40.432Z,8.13
2023-05-14T00:27:07.382Z,8.40
2023-05-14T00:29:34.247Z,8.45
2023-05-14T00:32:00.935Z,7.05
2023-05-14T00:34:27.555Z,7.65
2023-05-14T00:36:54.325Z,6.88
2023-05-14T00:39:21.042Z,6.90
2023-05-14T00:41:47.632Z,7.55
2023-05-14T00:44:14.274Z,7.10
2023-05-14T00:46:41.045Z,6.80
2023-05-14T00:49:07.840Z,7.55
2023-05-14T00:51:34.610Z,8.90
2023-05-14T00:54:01.436Z,8.80
2023-05-14T00:56:28.195Z,8.35
2023-05-14T00:58:54.748Z,8.05
2023-05-14T01:01:21.652Z,7.72
2023-05-14T01:03:49.048Z,8.77
2023-05-14T01:06:20.636Z,9.15
2023-05-14T01:09:01.643Z,9.73
2023-05-14T01:11:55.963Z,9.52
2023-05-14T01:14:34.389Z,9.00
2023-05-14T01:17:02.698Z,8.07
2023-05-14T01:19:36.087Z,7.90
2023-05-14T01:22:02.830Z,8.70
2023-05-14T01:24:29.613Z,9.05
2023-05-14T01:27:01.914Z,9.48
2023-05-14T01:29:29.102Z,8.80
2023-05-14T01:31:56.779Z,8.23
2023-05-14T01:34:24.414Z,7.10
2023-05-14T01:36:51.828Z,9.13
2023-05-14T01:39:19.503Z,10.15
2023-05-14T01:41:47.358Z,9.45
2023-05-14T01:44:14.116Z,7.85
2023-05-14T01:46:42.166Z,6.78
2023-05-14T01:49:08.813Z,5.70
2023-05-14T01:51:35.751Z,6.47
2023-05-14T01:54:02.777Z,7.05
2023-05-14T01:56:29.450Z,7.00
2023-05-14T01:58:56.799Z,9.15
2023-05-14T02:01:23.670Z,8.57
2023-05-14T02:03:50.475Z,8.55
2023-05-14T02:06:17.162Z,8.27
2023-05-14T02:08:43.762Z,8.80
2023-05-14T02:11:10.525Z,8.80
2023-05-14T02:13:37.365Z,8.43
2023-05-14T02:16:04.413Z,7.47
2023-05-14T02:18:31.220Z,9.07
2023-05-14T02:20:57.908Z,9.85
2023-05-14T02:23:34.085Z,9.18
2023-05-14T02:26:01.041Z,8.73
2023-05-14T02:28:28.288Z,8.10
2023-05-14T02:31:01.539Z,7.25
2023-05-14T02:33:28.382Z,7.40
2023-05-14T02:35:55.044Z,8.30
2023-05-14T02:38:22.222Z,8.40
2023-05-14T02:40:49.079Z,9.60
2023-05-14T02:43:16.127Z,10.80
2023-05-14T02:45:43.016Z,9.15
2023-05-14T02:48:09.734Z,9.32
2023-05-14T02:50:36.646Z,10.27
2023-05-14T02:53:03.280Z,11.15
2023-05-14T02:55:30.019Z,10.43
2023-05-14T02:57:56.788Z,9.10
2023-05-14T03:00:23.932Z,7.63
2023-05-14T03:02:51.289Z,7.53
2023-05-14T03:05:18.456Z,7.32
2023-05-14T03:07:45.749Z,8.00
2023-05-14T03:10:12.387Z,8.25
2023-05-14T03:12:39.053Z,8.55
2023-05-14T03:15:06.206Z,8.40
2023-05-14T03:17:32.971Z,9.60
2023-05-14T03:19:59.598Z,9.27
2023-05-14T03:22:26.859Z,8.90
2023-05-14T03:24:53.674Z,9.35
2023-05-14T03:27:20.750Z,10.82
2023-05-14T03:29:47.429Z,12.85
2023-05-14T03:32:14.946Z,12.07
2023-05-14T03:34:41.880Z,11.57
2023-05-14T03:37:08.578Z,9.23
2023-05-14T03:39:35.209Z,10.48
2023-05-14T03:42:04.753Z,10.45
2023-05-14T03:44:31.328Z,9.00
2023-05-14T03:46:58.054Z,7.80
2023-05-14T03:49:25.237Z,8.88
2023-05-14T03:51:51.861Z,9.20
2023-05-14T03:54:18.519Z,9.98
2023-05-14T03:56:45.871Z,10.68
2023-05-14T03:59:13.279Z,9.95
2023-05-14T04:01:39.891Z,10.30
2023-05-14T04:04:06.693Z,11.65
2023-05-14T04:06:33.819Z,11.40
2023-05-14T04:09:02.013Z,9.93
2023-05-14T04:11:28.714Z,9.20
2023-05-14T04:13:55.700Z,8.38
2023-05-14T04:16:22.632Z,7.63
2023-05-14T04:18:49.411Z,7.07
2023-05-14T04:21:16.188Z,5.55
2023-05-14T04:23:42.772Z,5.85
2023-05-14T04:26:09.370Z,5.13
2023-05-14T04:28:36.025Z,5.20
2023-05-14T04:31:02.789Z,5.25
2023-05-14T04:33:29.357Z,5.97
2023-05-14T04:35:56.045Z,5.75
2023-05-14T04:38:23.186Z,6.47
2023-05-14T04:40:49.776Z,5.50
2023-05-14T04:43:17.444Z,5.80
2023-05-14T04:45:44.212Z,6.50
2023-05-14T04:48:11.077Z,5.40
2023-05-14T04:50:37.748Z,5.90
2023-05-14T04:53:04.336Z,4.90
2023-05-14T04:55:31.000Z,5.07
2023-05-14T04:57:57.695Z,5.20
2023-05-14T05:00:24.832Z,5.70
2023-05-14T05:02:51.677Z,5.57
2023-05-14T05:05:18.756Z,5.03
2023-05-14T05:07:45.336Z,5.10
2023-05-14T05:10:12.096Z,5.80
2023-05-14T05:12:38.913Z,5.95
2023-05-14T05:15:06.293Z,5.95
2023-05-14T05:17:33.192Z,5.47
2023-05-14T05:19:59.869Z,4.88
2023-05-14T05:22:26.519Z,7.53
2023-05-14T05:24:53.402Z,6.78
2023-05-14T05:27:21.958Z,6.07
2023-05-14T05:29:48.617Z,5.90
2023-05-14T05:32:15.492Z,5.80
2023-05-14T05:34:42.673Z,6.47
2023-05-14T05:37:12.666Z,6.43
2023-05-14T05:39:39.741Z,6.03
2023-05-14T05:42:06.844Z,5.60
2023-05-14T05:44:33.679Z,5.93
2023-05-14T05:47:00.348Z,5.72
2023-05-14T05:49:27.080Z,5.55
2023-05-14T05:51:53.685Z,5.28
2023-05-14T05:54:20.310Z,5.13
2023-05-14T05:56:46.922Z,5.38
2023-05-14T05:59:13.523Z,5.57
2023-05-14T06:01:41.285Z,5.57
2023-05-14T06:04:07.916Z,4.95
2023-05-14T06:06:34.536Z,5.22
2023-05-14T06:09:02.001Z,4.72
2023-05-14T06:11:28.903Z,4.97
2023-05-14T06:13:55.615Z,4.75
2023-05-14T06:16:22.733Z,4.43
2023-05-14T06:18:49.555Z,5.22
2023-05-14T06:21:16.310Z,5.00
2023-05-14T06:23:42.941Z,5.25
2023-05-14T06:26:09.646Z,4.57
2023-05-14T06:28:36.503Z,4.90
2023-05-14T06:31:03.109Z,4.85
2023-05-14T06:33:31.308Z,4.78
2023-05-14T06:35:59.464Z,5.28
2023-05-14T06:38:26.068Z,5.10
2023-05-14T06:40:55.506Z,5.13
2023-05-14T06:43:22.630Z,5.50
2023-05-14T06:45:50.450Z,4.90
2023-05-14T06:48:18.758Z,5.60
2023-05-14T06:50:46.836Z,5.25
2023-05-14T06:53:13.730Z,4.57
2023-05-14T06:55:40.448Z,4.85
2023-05-14T06:58:07.631Z,4.93
2023-05-14T07:00:34.379Z,4.75
2023-05-14T07:03:01.156Z,4.93
2023-05-14T07:05:27.963Z,4.97
2023-05-14T07:07:54.602Z,4.90
2023-05-14T07:10:22.384Z,4.90
2023-05-14T07:12:49.510Z,5.05
2023-05-14T07:15:16.127Z,4.45
2023-05-14T07:17:42.830Z,4.88
2023-05-14T07:20:09.966Z,4.75
2023-05-14T07:22:36.802Z,5.00
2023-05-14T07:25:03.525Z,5.43
2023-05-14T07:27:30.573Z,4.70
2023-05-14T07:29:57.206Z,4.97
2023-05-14T07:32:25.082Z,4.55
2023-05-14T07:34:51.934Z,4.90
2023-05-14T07:37:18.904Z,4.35
2023-05-14T07:39:45.570Z,4.85
2023-05-14T07:42:19.341Z,4.88
2023-05-14T07:44:51.901Z,5.25
2023-05-14T07:47:19.188Z,4.38
2023-05-14T07:49:45.952Z,4.60
2023-05-14T07:52:12.584Z,5.22
2023-05-14T07:54:39.405Z,5.28
2023-05-14T07:57:06.109Z,4.57
2023-05-14T07:59:32.696Z,5.13
2023-05-14T08:01:59.339Z,4.68
2023-05-14T08:04:26.397Z,4.50
2023-05-14T08:06:53.114Z,4.80
2023-05-14T08:09:19.780Z,4.80
2023-05-14T08:11:46.432Z,4.70
2023-05-14T08:14:12.994Z,4.93
2023-05-14T08:16:39.657Z,4.70
2023-05-14T08:19:06.352Z,4.72
2023-05-14T08:21:33.057Z,4.57
2023-05-14T08:23:59.695Z,4.85
2023-05-14T08:26:26.457Z,4.13
2023-05-14T08:28:54.303Z,4.75
2023-05-14T08:31:20.966Z,4.00
2023-05-14T08:33:47.579Z,3.80
2023-05-14T08:36:14.184Z,4.00
2023-05-14T08:38:42.054Z,4.43
2023-05-14T08:41:09.207Z,3.97
2023-05-14T08:43:47.307Z,4.13
2023-05-14T08:46:15.317Z,4.25
2023-05-14T08:48:42.794Z,3.92
2023-05-14T08:51:09.792Z,4.03
2023-05-14T08:53:38.102Z,4.30
2023-05-14T08:56:05.491Z,4.65
2023-05-14T08:58:32.426Z,4.20
2023-05-14T09:00:59.890Z,4.40
2023-05-14T09:03:26.854Z,4.90
2023-05-14T09:05:53.804Z,4.65
2023-05-14T09:08:20.517Z,4.10
2023-05-14T09:10:47.122Z,4.38
2023-05-14T09:13:14.400Z,4.57
2023-05-14T09:15:41.573Z,4.20
2023-05-14T09:18:08.342Z,4.35
2023-05-14T09:20:35.105Z,4.30
2023-05-14T09:23:01.964Z,4.68
2023-05-14T09:25:32.659Z,4.22
2023-05-14T09:27:59.277Z,4.80
2023-05-14T09:30:27.264Z,4.40
2023-05-14T09:32:55.138Z,4.40
2023-05-14T09:35:23.540Z,4.10
2023-05-14T09:37:54.562Z,3.92
2023-05-14T09:40:22.865Z,3.83
2023-05-14T09:42:50.481Z,4.07
2023-05-14T09:45:17.344Z,3.88
2023-05-14T09:47:45.155Z,3.97
2023-05-14T09:50:12.587Z,4.05
2023-05-14T09:52:39.667Z,3.58
2023-05-14T09:55:06.931Z,3.40
2023-05-14T09:57:34.484Z,3.70
2023-05-14T10:00:01.199Z,3.00
2023-05-14T10:02:37.486Z,3.47
2023-05-14T10:05:05.992Z,3.30
2023-05-14T10:07:47.107Z,3.30
2023-05-14T10:10:16.396Z,3.50
2023-05-14T10:12:48.616Z,3.90
2023-05-14T10:15:21.910Z,3.42
2023-05-14T10:17:56.137Z,3.38
2023-05-14T10:20:23.057Z,2.80
2023-05-14T10:22:50.748Z,3.22
2023-05-14T10:25:17.387Z,2.92
2023-05-14T10:27:44.244Z,3.00
2023-05-14T10:30:14.704Z,3.08
2023-05-14T10:32:43.948Z,2.97
2023-05-14T10:35:20.263Z,3.25
2023-05-14T10:37:47.040Z,2.83
2023-05-14T10:40:14.232Z,3.03
2023-05-14T10:42:43.242Z,2.88
2023-05-14T10:45:15.930Z,2.72
2023-05-14T10:47:43.735Z,2.60
2023-05-14T10:50:12.352Z,2.60
2023-05-14T10:52:41.632Z,2.60
2023-05-14T10:55:09.144Z,2.30
2023-05-14T10:57:38.196Z,2.60
2023-05-14T11:00:07.706Z,2.45
2023-05-14T11:02:42.375Z,2.90
2023-05-14T11:05:14.404Z,2.40
2023-05-14T11:07:49.192Z,2.80
2023-05-14T11:10:20.512Z,3.03
2023-05-14T11:12:48.428Z,2.83
2023-05-14T11:15:20.799Z,2.70
2023-05-14T11:17:48.857Z,2.55
2023-05-14T11:20:19.297Z,2.50
2023-05-14T11:22:46.853Z,2.20
2023-05-14T11:25:14.721Z,2.65
2023-05-14T11:27:43.834Z,2.60
2023-05-14T11:30:17.613Z,2.60
2023-05-14T11:32:45.730Z,2.45
2023-05-14T11:35:13.324Z,2.58
2023-05-14T11:37:40.185Z,2.50
2023-05-14T11:40:09.913Z,2.33
2023-05-14T11:42:37.400Z,2.60
2023-05-14T11:45:04.467Z,2.33
2023-05-14T11:47:31.762Z,2.40
2023-05-14T11:49:59.705Z,2.70
2023-05-14T11:52:26.285Z,2.80
2023-05-14T11:54:52.981Z,2.60
2023-05-14T11:57:20.992Z,2.70
2023-05-14T11:59:49.199Z,2.28
2023-05-14T12:02:17.955Z,2.30
2023-05-14T12:04:45.085Z,2.53
2023-05-14T12:07:13.629Z,2.60
2023-05-14T12:09:45.102Z,2.53
2023-05-14T12:12:12.872Z,2.70
2023-05-14T12:14:42.623Z,2.47
2023-05-14T12:17:20.017Z,2.63
2023-05-14T12:19:51.324Z,2.60
2023-05-14T12:22:23.330Z,2.70
2023-05-14T12:24:57.406Z,2.38
2023-05-14T12:27:26.192Z,2.10
2023-05-14T12:30:19.799Z,2.50
2023-05-14T12:32:51.480Z,2.35
2023-05-14T12:35:18.595Z,2.40
2023-05-14T12:37:45.420Z,2.50
2023-05-14T12:40:12.303Z,2.58
2023-05-14T12:42:39.176Z,2.60
2023-05-14T12:45:08.377Z,2.63
2023-05-14T12:47:36.019Z,2.38
2023-05-14T12:50:02.882Z,2.30
2023-05-14T12:54:59.174Z,2.30
2023-05-14T12:57:26.853Z,2.10
2023-05-14T12:59:53.608Z,2.67
2023-05-14T13:02:20.518Z,2.50
2023-05-14T13:04:47.237Z,2.50
2023-05-14T13:07:13.958Z,2.40
2023-05-14T13:09:40.640Z,2.50
2023-05-14T13:12:07.634Z,2.50
2023-05-14T13:14:36.269Z,2.30
2023-05-14T13:17:04.256Z,3.08
2023-05-14T13:19:30.925Z,2.92
2023-05-14T13:21:57.639Z,3.30
2023-05-14T13:24:25.021Z,3.10
2023-05-14T13:26:51.634Z,2.55
2023-05-14T13:29:18.372Z,2.80
2023-05-14T13:31:45.015Z,2.80
2023-05-14T13:34:13.088Z,2.80
2023-05-14T13:36:40.649Z,2.78
2023-05-14T13:39:07.458Z,2.70
2023-05-14T13:41:38.245Z,2.22
2023-05-14T13:44:05.290Z,2.42
2023-05-14T13:46:31.926Z,2.42
2023-05-14T13:48:58.580Z,2.05
2023-05-14T13:51:26.400Z,2.33
2023-05-14T13:56:24.639Z,1.70
2023-05-14T13:58:51.591Z,1.80
2023-05-14T14:01:18.264Z,2.00
2023-05-14T14:03:45.100Z,1.67
2023-05-14T14:06:12.261Z,2.00
2023-05-14T14:08:39.134Z,1.95
2023-05-14T14:11:05.788Z,2.03
2023-05-14T14:13:32.404Z,2.20
2023-05-14T14:15:59.151Z,2.20
2023-05-14T14:18:26.041Z,2.05
2023-05-14T14:20:52.750Z,2.20
2023-05-14T14:23:19.683Z,2.22
2023-05-14T14:25:46.576Z,2.38
2023-05-14T14:28:13.637Z,2.50
2023-05-14T14:30:40.396Z,2.40
2023-05-14T14:33:07.110Z,2.35
2023-05-14T14:35:35.297Z,2.20
2023-05-14T14:38:01.944Z,2.45
2023-05-14T14:40:29.862Z,2.42
2023-05-14T14:42:56.547Z,2.00
2023-05-14T14:45:23.222Z,2.10
2023-05-14T14:47:50.058Z,2.60
2023-05-14T14:50:16.757Z,2.60
2023-05-14T14:52:46.132Z,2.35
2023-05-14T14:55:12.994Z,2.50
2023-05-14T14:57:39.794Z,2.60
2023-05-14T15:00:07.163Z,2.63
2023-05-14T15:02:34.256Z,2.55
2023-05-14T15:05:01.290Z,3.30
2023-05-14T15:07:29.507Z,2.15
2023-05-14T15:09:56.096Z,1.92
2023-05-14T15:12:22.753Z,2.35
2023-05-14T15:14:49.324Z,1.90
2023-05-14T15:17:15.970Z,1.85
2023-05-14T15:19:42.657Z,1.77
2023-05-14T15:22:09.338Z,1.65
2023-05-14T15:24:35.997Z,1.90
2023-05-14T15:27:02.560Z,1.60
2023-05-14T15:29:29.407Z,1.80
2023-05-14T15:31:56.630Z,1.80
2023-05-14T15:34:23.325Z,1.80
2023-05-14T15:36:49.892Z,1.80
2023-05-14T15:39:16.914Z,1.80
2023-05-14T15:41:43.510Z,1.77
2023-05-14T15:44:10.196Z,1.88
2023-05-14T15:46:37.904Z,1.60
2023-05-14T15:49:04.672Z,1.60
2023-05-14T15:51:31.996Z,1.50
2023-05-14T15:53:58.626Z,1.60
2023-05-14T15:56:25.469Z,1.90
2023-05-14T15:58:52.215Z,1.90
2023-05-14T16:01:19.221Z,1.58
2023-05-14T16:03:46.009Z,1.73
2023-05-14T16:06:13.076Z,1.50
2023-05-14T16:08:39.864Z,1.13
2023-05-14T16:11:07.651Z,1.38
2023-05-14T16:13:35.772Z,1.40
2023-05-14T16:16:02.575Z,1.15
2023-05-14T16:18:29.654Z,1.30
2023-05-14T16:20:56.569Z,1.40
2023-05-14T16:23:23.627Z,1.42
2023-05-14T16:25:50.267Z,1.20
2023-05-14T16:28:17.115Z,1.67
2023-05-14T16:30:44.038Z,1.30
2023-05-14T16:33:10.714Z,0.90
2023-05-14T16:35:37.469Z,1.40
2023-05-14T16:38:04.311Z,1.45
2023-05-14T16:40:30.970Z,1.20
2023-05-14T16:42:58.098Z,1.30
2023-05-14T16:45:24.985Z,1.30
2023-05-14T16:47:51.923Z,1.20
2023-05-14T16:50:18.594Z,1.20
2023-05-14T16:52:45.208Z,1.30
2023-05-14T16:55:11.877Z,1.20
2023-05-14T16:57:38.612Z,1.15
2023-05-14T17:00:06.404Z,1.48
2023-05-14T17:02:33.591Z,1.33
2023-05-14T17:05:00.563Z,1.40
2023-05-14T17:07:27.446Z,1.40
2023-05-14T17:09:54.487Z,1.50
2023-05-14T17:12:21.371Z,1.30
2023-05-14T17:14:47.994Z,1.70
2023-05-14T17:17:14.591Z,1.80
2023-05-14T17:19:41.296Z,1.80
2023-05-14T17:22:08.582Z,1.38
2023-05-14T17:24:36.651Z,1.30
2023-05-14T17:27:03.865Z,1.50
2023-05-14T17:29:30.596Z,1.27
2023-05-14T17:31:57.476Z,1.20
2023-05-14T17:34:24.553Z,1.40
2023-05-14T17:36:51.453Z,1.40
2023-05-14T17:39:18.088Z,1.30
2023-05-14T17:41:44.889Z,1.48
2023-05-14T17:44:13.135Z,1.45
2023-05-14T17:46:41.558Z,1.30
2023-05-14T17:49:08.385Z,1.52
2023-05-14T17:51:35.108Z,1.50
2023-05-14T17:54:01.710Z,1.13
2023-05-14T17:56:28.408Z,1.52
2023-05-14T17:58:54.989Z,1.70
2023-05-14T18:01:21.697Z,1.45
2023-05-14T18:03:48.620Z,1.55
2023-05-14T18:06:15.365Z,1.27
2023-05-14T18:08:42.501Z,1.60
2023-05-14T18:11:09.227Z,1.60
2023-05-14T18:13:35.860Z,1.50
2023-05-14T18:16:02.494Z,1.30
2023-05-14T18:18:29.176Z,1.45
2023-05-14T18:20:55.835Z,1.00
2023-05-14T18:23:22.417Z,1.17
2023-05-14T18:25:49.155Z,1.08
2023-05-14T18:28:15.922Z,1.20
2023-05-14T18:30:43.506Z,1.10
2023-05-14T18:33:10.511Z,1.10
2023-05-14T18:35:39.353Z,1.13
2023-05-14T18:38:07.874Z,0.98
2023-05-14T18:40:34.788Z,1.02
2023-05-14T18:43:01.444Z,0.93
2023-05-14T18:45:28.103Z,1.00
2023-05-14T18:47:55.052Z,1.00
2023-05-14T18:50:21.807Z,1.20
2023-05-14T18:52:48.402Z,1.25
2023-05-14T18:55:15.052Z,1.20
2023-05-14T18:57:41.669Z,1.00
2023-05-14T19:00:08.904Z,0.88
2023-05-14T19:02:36.052Z,1.10
2023-05-14T19:05:02.950Z,1.30
2023-05-14T19:07:30.900Z,1.60
2023-05-14T19:09:57.583Z,1.20
2023-05-14T19:12:24.243Z,1.52
2023-05-14T19:14:50.824Z,1.30
2023-05-14T19:17:18.576Z,1.20
2023-05-14T19:19:47.290Z,1.30
2023-05-14T19:22:14.088Z,1.20
2023-05-14T19:24:40.869Z,1.20
2023-05-14T19:27:08.118Z,1.20
2023-05-14T19:29:36.777Z,1.40
2023-05-14T19:32:04.721Z,1.38
2023-05-14T19:34:31.526Z,1.60
2023-05-14T19:36:58.156Z,1.60
2023-05-14T19:39:24.875Z,1.30
2023-05-14T19:41:54.023Z,1.63
2023-05-14T19:44:20.936Z,1.60
2023-05-14T19:46:47.632Z,1.38
2023-05-14T19:49:14.463Z,1.60
2023-05-14T19:51:41.395Z,1.50
2023-05-14T19:54:08.219Z,1.50
2023-05-14T19:56:34.885Z,1.90
2023-05-14T19:59:01.938Z,1.98
2023-05-14T20:01:29.411Z,1.90
2023-05-14T20:03:56.141Z,1.83
2023-05-14T20:06:22.802Z,1.58
2023-05-14T20:08:51.220Z,1.60
2023-05-14T20:11:19.488Z,2.10
2023-05-14T20:13:46.370Z,1.90
2023-05-14T20:16:16.585Z,2.10
2023-05-14T20:18:44.055Z,2.08
2023-05-14T20:21:11.019Z,2.20
2023-05-14T20:23:38.000Z,2.40
2023-05-14T20:26:04.759Z,2.40
2023-05-14T20:28:31.538Z,2.50
2023-05-14T20:31:03.866Z,2.53
2023-05-14T20:33:30.725Z,2.70
2023-05-14T20:35:57.459Z,2.92
2023-05-14T20:38:25.578Z,3.40
2023-05-14T20:40:52.217Z,3.55
2023-05-14T20:43:18.807Z,3.63
2023-05-14T20:45:45.471Z,4.00
2023-05-14T20:48:16.045Z,3.75
2023-05-14T20:50:43.034Z,4.20
2023-05-14T20:53:10.263Z,3.78
2023-05-14T20:55:36.900Z,3.80
2023-05-14T20:58:03.867Z,3.60
2023-05-14T21:00:30.575Z,3.75
2023-05-14T21:02:57.541Z,3.63
2023-05-14T21:05:24.886Z,3.60
2023-05-14T21:07:51.760Z,3.22
2023-05-14T21:10:18.360Z,2.85
2023-05-14T21:12:45.110Z,2.97
2023-05-14T21:15:11.826Z,3.13
2023-05-14T21:17:38.621Z,2.72
2023-05-14T21:20:06.058Z,2.90
2023-05-14T21:22:32.891Z,3.70
2023-05-14T21:24:59.533Z,3.65
2023-05-14T21:27:26.767Z,3.78
2023-05-14T21:29:53.418Z,3.60
2023-05-14T21:32:22.081Z,3.80
2023-05-14T21:34:48.907Z,3.92
2023-05-14T21:37:15.564Z,3.55
2023-05-14T21:39:42.288Z,3.90
2023-05-14T21:42:09.428Z,3.70
2023-05-14T21:44:36.125Z,3.80
2023-05-14T21:47:03.496Z,3.70
2023-05-14T21:49:30.227Z,3.83
2023-05-14T21:51:56.900Z,3.58
2023-05-14T21:54:23.560Z,3.40
2023-05-14T21:56:50.194Z,3.40
2023-05-14T21:59:16.823Z,2.78
2023-05-14T22:04:13.116Z,2.20
2023-05-14T22:06:39.903Z,2.00
2023-05-14T22:09:06.534Z,2.10
2023-05-14T22:11:33.101Z,2.60
2023-05-14T22:13:59.679Z,2.60
2023-05-14T22:16:26.828Z,2.80
2023-05-14T22:18:53.893Z,2.70
2023-05-14T22:21:20.453Z,2.65
2023-05-14T22:23:47.897Z,2.90
2023-05-14T22:26:14.511Z,2.60
2023-05-14T22:28:42.895Z,2.58
2023-05-14T22:31:10.063Z,2.67
2023-05-14T22:33:36.875Z,2.95
2023-05-14T22:36:03.695Z,3.38
2023-05-14T22:38:30.295Z,2.58
2023-05-14T22:40:56.975Z,2.30
2023-05-14T22:43:23.580Z,2.97
2023-05-14T22:45:50.312Z,2.47
2023-05-14T22:48:16.969Z,2.70
2023-05-14T22:50:43.567Z,2.40
2023-05-14T22:53:10.296Z,2.30
2023-05-14T22:55:36.970Z,3.00
2023-05-14T22:58:03.936Z,2.60
2023-05-14T23:00:30.605Z,2.58
2023-05-14T23:02:57.201Z,3.00
2023-05-14T23:05:25.132Z,2.85
2023-05-14T23:07:52.863Z,2.80
2023-05-14T23:10:20.011Z,3.50
2023-05-14T23:12:46.876Z,3.95
2023-05-14T23:15:13.531Z,3.60
2023-05-14T23:17:40.735Z,4.18
2023-05-14T23:20:13.197Z,3.85
2023-05-14T23:22:40.269Z,3.90
2023-05-14T23:25:07.733Z,3.30
2023-05-14T23:27:34.843Z,3.17
2023-05-14T23:30:01.515Z,3.33
2023-05-14T23:32:28.265Z,3.42
2023-05-14T23:34:55.287Z,3.40
2023-05-14T23:37:22.051Z,3.45
2023-05-14T23:39:48.633Z,3.53
2023-05-14T23:42:15.291Z,3.22
2023-05-14T23:44:41.950Z,3.25
2023-05-14T23:47:08.747Z,3.47
2023-05-14T23:49:35.514Z,2.60
2023-05-14T23:52:02.565Z,3.10
2023-05-14T23:54:29.219Z,3.30
2023-05-14T23:56:55.899Z,3.42
2023-05-14T23:59:22.572Z,3.55
